createdAt,value
2022-11-21T00:00:37.994Z,3
2022-11-21T00:02:21.685Z,3
2022-11-21T00:04:05.382Z,2
2022-11-21T00:05:49.089Z,3
2022-11-21T00:07:32.791Z,3
2022-11-21T00:09:16.489Z,3
2022-11-21T00:11:00.191Z,3
2022-11-21T00:12:43.900Z,3
2022-11-21T00:14:27.601Z,3
2022-11-21T00:16:11.299Z,10
2022-11-21T00:17:54.998Z,11
2022-11-21T00:19:38.712Z,11
2022-11-21T00:21:22.446Z,10
2022-11-21T00:23:06.107Z,2
2022-11-21T00:24:49.817Z,1
2022-11-21T00:26:33.537Z,2
2022-11-21T00:28:17.217Z,2
2022-11-21T00:30:00.926Z,2
2022-11-21T00:31:44.632Z,2
2022-11-21T00:33:28.320Z,2
2022-11-21T00:35:12.031Z,2
2022-11-21T00:36:55.733Z,2
2022-11-21T00:38:39.446Z,2
2022-11-21T00:40:23.140Z,2
2022-11-21T00:42:06.839Z,2
2022-11-21T00:43:50.542Z,2
2022-11-21T00:45:34.252Z,2
2022-11-21T00:47:17.949Z,2
2022-11-21T00:49:01.654Z,2
2022-11-21T00:50:45.371Z,2
2022-11-21T00:52:29.051Z,2
2022-11-21T00:54:12.756Z,2
2022-11-21T00:55:56.464Z,2
2022-11-21T00:57:40.167Z,2
2022-11-21T00:59:23.877Z,3
2022-11-21T01:01:07.587Z,2
2022-11-21T01:02:51.281Z,2
2022-11-21T01:04:34.985Z,2
2022-11-21T01:06:18.689Z,2
2022-11-21T01:08:02.394Z,2
2022-11-21T01:09:46.103Z,2
2022-11-21T01:11:29.814Z,2
2022-11-21T01:13:13.502Z,2
2022-11-21T01:14:57.209Z,2
2022-11-21T01:16:40.903Z,2
2022-11-21T01:18:24.608Z,3
2022-11-21T01:21:52.027Z,2
2022-11-21T01:23:35.713Z,2
2022-11-21T01:25:19.419Z,2
2022-11-21T01:27:03.209Z,2
2022-11-21T01:28:46.870Z,2
2022-11-21T01:30:30.531Z,2
2022-11-21T01:32:14.234Z,2
2022-11-21T01:33:57.938Z,2
2022-11-21T01:35:41.622Z,2
2022-11-21T01:37:25.333Z,2
2022-11-21T01:39:09.040Z,2
2022-11-21T01:40:52.731Z,2
2022-11-21T01:42:36.441Z,2
2022-11-21T01:44:20.169Z,2
2022-11-21T01:46:03.886Z,2
2022-11-21T01:47:47.553Z,2
2022-11-21T01:49:31.254Z,3
2022-11-21T01:51:14.956Z,2
2022-11-21T01:52:58.664Z,2
2022-11-21T01:54:42.367Z,2
2022-11-21T01:56:26.076Z,2
2022-11-21T01:58:09.774Z,2
2022-11-21T01:59:53.467Z,2
2022-11-21T02:01:37.176Z,2
2022-11-21T02:03:20.886Z,3
2022-11-21T02:05:04.577Z,2
2022-11-21T02:06:48.294Z,3
2022-11-21T02:08:32.005Z,2
2022-11-21T02:10:15.681Z,1
2022-11-21T02:11:59.404Z,2
2022-11-21T02:13:43.084Z,2
2022-11-21T02:15:26.804Z,1
2022-11-21T02:17:10.498Z,2
2022-11-21T02:18:54.206Z,1
2022-11-21T02:20:37.910Z,2
2022-11-21T02:22:21.608Z,2
2022-11-21T02:24:05.314Z,2
2022-11-21T02:25:49.020Z,3
2022-11-21T02:27:32.720Z,2
2022-11-21T02:29:16.421Z,2
2022-11-21T02:31:00.122Z,2
2022-11-21T02:32:43.819Z,2
2022-11-21T02:34:27.527Z,2
2022-11-21T02:36:11.228Z,2
2022-11-21T02:37:54.928Z,1
2022-11-21T02:39:38.630Z,2
2022-11-21T02:41:22.352Z,2
2022-11-21T02:43:06.040Z,1
2022-11-21T02:44:49.751Z,2
2022-11-21T02:46:33.456Z,2
2022-11-21T02:48:17.150Z,3
2022-11-21T02:50:00.851Z,2
2022-11-21T02:51:44.547Z,2
2022-11-21T02:53:28.265Z,2
2022-11-21T02:55:11.959Z,2
2022-11-21T02:56:55.658Z,2
2022-11-21T02:58:39.372Z,2
2022-11-21T03:00:23.083Z,2
2022-11-21T03:02:06.762Z,2
2022-11-21T03:03:50.471Z,2
2022-11-21T03:05:34.187Z,2
2022-11-21T03:07:17.881Z,1
2022-11-21T03:09:01.589Z,2
2022-11-21T03:10:45.282Z,2
2022-11-21T03:12:28.984Z,2
2022-11-21T03:14:12.689Z,2
2022-11-21T03:15:56.390Z,1
2022-11-21T03:17:40.092Z,1
2022-11-21T03:19:23.799Z,2
2022-11-21T03:21:07.497Z,1
2022-11-21T03:22:51.212Z,2
2022-11-21T03:24:34.898Z,2
2022-11-21T03:26:18.605Z,2
2022-11-21T03:28:02.303Z,2
2022-11-21T03:29:46.008Z,2
2022-11-21T03:31:29.716Z,2
2022-11-21T03:33:13.415Z,1
2022-11-21T03:34:57.123Z,1
2022-11-21T03:36:40.831Z,2
2022-11-21T03:38:24.530Z,1
2022-11-21T03:40:08.237Z,2
2022-11-21T03:41:51.932Z,2
2022-11-21T03:43:35.629Z,2
2022-11-21T03:45:19.332Z,2
2022-11-21T03:47:03.052Z,1
2022-11-21T03:48:46.746Z,2
2022-11-21T03:50:30.463Z,2
2022-11-21T03:52:14.147Z,2
2022-11-21T03:53:57.859Z,2
2022-11-21T03:55:41.556Z,2
2022-11-21T03:57:25.251Z,2
2022-11-21T03:59:08.961Z,2
2022-11-21T04:00:52.662Z,2
2022-11-21T04:02:36.381Z,2
2022-11-21T04:04:20.059Z,1
2022-11-21T04:06:03.769Z,2
2022-11-21T04:07:47.476Z,2
2022-11-21T04:09:31.189Z,1
2022-11-21T04:11:14.870Z,2
2022-11-21T04:12:58.580Z,2
2022-11-21T04:14:42.286Z,3
2022-11-21T04:16:25.971Z,2
2022-11-21T04:18:09.683Z,2
2022-11-21T04:19:53.393Z,2
2022-11-21T04:21:37.088Z,2
2022-11-21T04:23:20.789Z,3
2022-11-21T04:25:04.496Z,2
2022-11-21T04:26:48.193Z,2
2022-11-21T04:28:31.901Z,1
2022-11-21T04:30:15.596Z,2
2022-11-21T04:31:59.301Z,2
2022-11-21T04:33:43.021Z,2
2022-11-21T04:35:26.705Z,1
2022-11-21T04:37:10.412Z,2
2022-11-21T04:38:54.108Z,2
2022-11-21T04:40:37.807Z,2
2022-11-21T04:42:21.510Z,3
2022-11-21T04:44:05.217Z,2
2022-11-21T04:45:48.918Z,2
2022-11-21T04:49:16.335Z,3
2022-11-21T04:51:00.028Z,2
2022-11-21T04:52:43.736Z,2
2022-11-21T04:54:27.439Z,1
2022-11-21T04:56:11.139Z,2
2022-11-21T04:57:54.849Z,1
2022-11-21T04:59:38.540Z,2
2022-11-21T05:01:22.242Z,1
2022-11-21T05:03:05.957Z,2
2022-11-21T05:04:49.658Z,2
2022-11-21T05:06:33.349Z,2
2022-11-21T05:08:17.057Z,2
2022-11-21T05:10:00.754Z,2
2022-11-21T05:11:44.462Z,3
2022-11-21T05:13:28.161Z,2
2022-11-21T05:15:11.873Z,1
2022-11-21T05:16:55.570Z,2
2022-11-21T05:18:39.275Z,1
2022-11-21T05:20:22.976Z,1
2022-11-21T05:22:06.694Z,3
2022-11-21T05:23:50.382Z,2
2022-11-21T05:25:34.088Z,2
2022-11-21T05:27:17.796Z,2
2022-11-21T05:29:01.489Z,1
2022-11-21T05:30:45.192Z,2
2022-11-21T05:32:28.900Z,1
2022-11-21T05:34:12.604Z,2
2022-11-21T05:35:56.309Z,2
2022-11-21T05:37:40.008Z,2
2022-11-21T05:39:23.705Z,2
2022-11-21T05:41:07.434Z,2
2022-11-21T05:42:51.112Z,1
2022-11-21T05:44:34.821Z,2
2022-11-21T05:46:18.525Z,2
2022-11-21T05:48:02.239Z,2
2022-11-21T05:49:45.931Z,1
2022-11-21T05:51:29.632Z,1
2022-11-21T05:53:13.341Z,2
2022-11-21T05:54:57.052Z,2
2022-11-21T05:56:40.736Z,1
2022-11-21T05:58:24.437Z,2
2022-11-21T06:00:08.149Z,1
2022-11-21T06:01:51.840Z,1
2022-11-21T06:03:35.549Z,1
2022-11-21T06:05:19.282Z,1
2022-11-21T06:07:02.996Z,1
2022-11-21T06:08:46.651Z,1
2022-11-21T06:10:30.356Z,1
2022-11-21T06:12:14.128Z,1
2022-11-21T06:13:57.759Z,1
2022-11-21T06:15:41.463Z,2
2022-11-21T06:17:25.180Z,3
2022-11-21T06:19:08.880Z,2
2022-11-21T06:20:52.559Z,2
2022-11-21T06:22:36.269Z,3
2022-11-21T06:24:19.986Z,4
2022-11-21T06:26:03.676Z,5
2022-11-21T06:27:47.377Z,5
2022-11-21T06:29:31.106Z,7
2022-11-21T06:31:14.780Z,8
2022-11-21T06:32:58.502Z,10
2022-11-21T06:34:42.195Z,12
2022-11-21T06:36:25.931Z,16
2022-11-21T06:38:09.602Z,18
2022-11-21T06:39:53.291Z,24
2022-11-21T06:41:36.999Z,27
2022-11-21T06:43:20.702Z,37
2022-11-21T06:45:04.439Z,44
2022-11-21T06:46:48.107Z,49
2022-11-21T06:48:31.816Z,62
2022-11-21T06:50:15.518Z,68
2022-11-21T06:51:59.220Z,87
2022-11-21T06:53:42.939Z,101
2022-11-21T06:55:26.664Z,119
2022-11-21T06:57:10.335Z,134
2022-11-21T06:58:54.035Z,148
2022-11-21T07:00:37.758Z,169
2022-11-21T07:02:21.520Z,177
2022-11-21T07:04:05.164Z,184
2022-11-21T07:05:48.847Z,204
2022-11-21T07:07:32.552Z,219
2022-11-21T07:09:16.246Z,268
2022-11-21T07:10:59.967Z,239
2022-11-21T07:12:43.656Z,311
2022-11-21T07:14:27.405Z,537
2022-11-21T07:16:11.060Z,625
2022-11-21T07:17:54.781Z,633
2022-11-21T07:19:38.469Z,644
2022-11-21T07:21:22.182Z,732
2022-11-21T07:23:05.872Z,736
2022-11-21T07:24:49.575Z,736
2022-11-21T07:26:33.282Z,728
2022-11-21T07:28:16.981Z,736
2022-11-21T07:30:00.689Z,736
2022-11-21T07:31:44.385Z,736
2022-11-21T07:33:28.094Z,736
2022-11-21T07:35:11.800Z,736
2022-11-21T07:36:55.490Z,737
2022-11-21T07:38:39.210Z,736
2022-11-21T07:40:22.906Z,736
2022-11-21T07:42:06.599Z,736
2022-11-21T07:43:50.345Z,736
2022-11-21T07:45:34.011Z,735
2022-11-21T07:47:17.704Z,735
2022-11-21T07:49:01.406Z,736
2022-11-21T07:50:45.110Z,736
2022-11-21T07:52:28.883Z,736
2022-11-21T07:54:12.524Z,736
2022-11-21T07:55:56.219Z,736
2022-11-21T07:57:39.927Z,737
2022-11-21T07:59:23.624Z,736
2022-11-21T08:01:07.326Z,735
2022-11-21T08:02:51.051Z,735
2022-11-21T08:04:34.738Z,735
2022-11-21T08:06:18.443Z,736
2022-11-21T08:08:02.134Z,736
2022-11-21T08:09:45.845Z,735
2022-11-21T08:11:29.534Z,737
2022-11-21T08:13:13.299Z,736
2022-11-21T08:14:56.961Z,736
2022-11-21T08:16:40.658Z,736
2022-11-21T08:18:24.413Z,736
2022-11-21T08:20:08.063Z,736
2022-11-21T08:21:51.764Z,737
2022-11-21T08:23:35.494Z,736
2022-11-21T08:25:19.170Z,735
2022-11-21T08:27:02.870Z,736
2022-11-21T08:28:46.586Z,735
2022-11-21T08:30:30.290Z,736
2022-11-21T08:32:13.994Z,736
2022-11-21T08:33:57.713Z,736
2022-11-21T08:35:41.386Z,737
2022-11-21T08:37:25.097Z,736
2022-11-21T08:39:08.795Z,735
2022-11-21T08:40:52.503Z,735
2022-11-21T08:42:36.204Z,735
2022-11-21T08:44:19.901Z,736
2022-11-21T08:46:03.610Z,736
2022-11-21T08:47:47.308Z,735
2022-11-21T08:51:14.712Z,736
2022-11-21T08:52:58.410Z,736
2022-11-21T08:54:42.169Z,736
2022-11-21T08:56:25.854Z,736
2022-11-21T08:58:09.560Z,737
2022-11-21T08:59:53.224Z,736
2022-11-21T09:01:36.931Z,735
2022-11-21T09:03:20.626Z,736
2022-11-21T09:05:04.404Z,737
2022-11-21T09:06:48.032Z,736
2022-11-21T09:08:31.753Z,736
2022-11-21T09:10:15.465Z,736
2022-11-21T09:11:59.146Z,736
2022-11-21T09:13:42.879Z,737
2022-11-21T09:15:26.585Z,737
2022-11-21T09:17:10.261Z,737
2022-11-21T09:18:54.020Z,736
2022-11-21T09:20:37.659Z,728
2022-11-21T09:22:21.406Z,736
2022-11-21T09:24:05.082Z,736
2022-11-21T09:25:48.765Z,736
2022-11-21T09:27:32.581Z,737
2022-11-21T09:29:16.180Z,736
2022-11-21T09:30:59.947Z,735
2022-11-21T09:32:43.581Z,736
2022-11-21T09:34:27.279Z,736
2022-11-21T09:36:10.976Z,737
2022-11-21T09:37:54.677Z,737
2022-11-21T09:39:38.380Z,728
2022-11-21T09:41:22.089Z,736
2022-11-21T09:43:05.788Z,736
2022-11-21T09:44:49.492Z,737
2022-11-21T09:46:33.191Z,735
2022-11-21T09:48:16.898Z,736
2022-11-21T09:50:00.708Z,737
2022-11-21T09:51:44.368Z,737
2022-11-21T09:53:28.054Z,736
2022-11-21T09:55:11.714Z,736
2022-11-21T09:56:55.408Z,736
2022-11-21T09:58:39.148Z,728
2022-11-21T10:00:22.808Z,737
2022-11-21T10:02:06.524Z,736
2022-11-21T10:03:50.214Z,736
2022-11-21T10:05:33.982Z,737
2022-11-21T10:07:17.626Z,737
2022-11-21T10:09:01.319Z,736
2022-11-21T10:10:45.029Z,736
2022-11-21T10:12:28.737Z,736
2022-11-21T10:14:12.437Z,737
2022-11-21T10:15:56.144Z,737
2022-11-21T10:17:39.841Z,726
2022-11-21T10:19:23.541Z,737
2022-11-21T10:21:07.351Z,736
2022-11-21T10:22:50.947Z,737
2022-11-21T10:24:34.653Z,737
2022-11-21T10:26:18.477Z,736
2022-11-21T10:28:02.056Z,737
2022-11-21T10:29:45.767Z,737
2022-11-21T10:31:29.469Z,737
2022-11-21T10:33:13.234Z,736
2022-11-21T10:34:56.897Z,736
2022-11-21T10:36:40.620Z,728
2022-11-21T10:38:24.274Z,737
2022-11-21T10:40:07.995Z,736
2022-11-21T10:41:51.675Z,736
2022-11-21T10:43:35.386Z,737
2022-11-21T10:45:19.162Z,737
2022-11-21T10:47:02.780Z,737
2022-11-21T10:48:46.485Z,736
2022-11-21T10:50:30.195Z,737
2022-11-21T10:52:13.879Z,736
2022-11-21T10:53:57.682Z,736
2022-11-21T10:55:41.288Z,727
2022-11-21T10:57:24.994Z,737
2022-11-21T10:59:08.699Z,737
2022-11-21T11:00:52.395Z,737
2022-11-21T11:02:36.149Z,737
2022-11-21T11:04:19.812Z,737
2022-11-21T11:06:03.569Z,735
2022-11-21T11:07:47.211Z,737
2022-11-21T11:09:30.918Z,736
2022-11-21T11:11:14.614Z,736
2022-11-21T11:12:58.401Z,737
2022-11-21T11:14:42.026Z,735
2022-11-21T11:16:25.725Z,736
2022-11-21T11:18:09.528Z,736
2022-11-21T11:19:53.132Z,737
2022-11-21T11:21:36.834Z,738
2022-11-21T11:23:20.597Z,736
2022-11-21T11:25:04.235Z,736
2022-11-21T11:26:47.939Z,737
2022-11-21T11:28:31.645Z,736
2022-11-21T11:30:15.345Z,737
2022-11-21T11:31:59.049Z,736
2022-11-21T11:33:42.785Z,735
2022-11-21T11:35:26.456Z,737
2022-11-21T11:37:10.220Z,737
2022-11-21T11:38:53.874Z,736
2022-11-21T11:40:37.552Z,736
2022-11-21T11:42:21.268Z,736
2022-11-21T11:44:04.955Z,737
2022-11-21T11:45:48.686Z,736
2022-11-21T11:47:32.357Z,736
2022-11-21T11:49:16.087Z,736
2022-11-21T11:50:59.770Z,737
2022-11-21T11:52:43.464Z,737
2022-11-21T11:54:27.210Z,736
2022-11-21T11:56:10.962Z,735
2022-11-21T11:57:54.572Z,737
2022-11-21T11:59:38.280Z,737
2022-11-21T12:01:21.984Z,736
2022-11-21T12:03:05.680Z,737
2022-11-21T12:04:49.393Z,737
2022-11-21T12:06:33.081Z,737
2022-11-21T12:08:16.798Z,737
2022-11-21T12:10:00.517Z,736
2022-11-21T12:11:44.198Z,736
2022-11-21T12:13:27.901Z,737
2022-11-21T12:15:11.598Z,736
2022-11-21T12:16:55.303Z,737
2022-11-21T12:18:39.010Z,736
2022-11-21T12:20:22.701Z,737
2022-11-21T12:22:06.412Z,736
2022-11-21T12:23:50.115Z,737
2022-11-21T12:25:33.811Z,736
2022-11-21T12:27:17.514Z,737
2022-11-21T12:29:01.223Z,728
2022-11-21T12:30:44.917Z,737
2022-11-21T12:32:28.634Z,736
2022-11-21T12:34:12.320Z,737
2022-11-21T12:35:56.024Z,737
2022-11-21T12:37:39.733Z,739
2022-11-21T12:39:23.505Z,736
2022-11-21T12:41:07.150Z,736
2022-11-21T12:42:50.837Z,737
2022-11-21T12:44:34.549Z,737
2022-11-21T12:46:18.316Z,737
2022-11-21T12:48:01.946Z,735
2022-11-21T12:49:45.648Z,737
2022-11-21T12:51:29.359Z,737
2022-11-21T12:53:13.054Z,737
2022-11-21T12:54:56.764Z,736
2022-11-21T12:56:40.470Z,736
2022-11-21T12:58:24.156Z,737
2022-11-21T13:00:07.865Z,737
2022-11-21T13:01:51.567Z,736
2022-11-21T13:03:35.291Z,737
2022-11-21T13:05:18.984Z,737
2022-11-21T13:07:02.680Z,736
2022-11-21T13:08:46.387Z,736
2022-11-21T13:10:30.138Z,736
2022-11-21T13:12:13.803Z,736
2022-11-21T13:13:57.560Z,737
2022-11-21T13:15:41.199Z,738
2022-11-21T13:17:24.935Z,737
2022-11-21T13:19:08.673Z,736
2022-11-21T13:20:52.310Z,737
2022-11-21T13:22:36.100Z,737
2022-11-21T13:24:19.785Z,737
2022-11-21T13:26:03.412Z,735
2022-11-21T13:27:47.180Z,736
2022-11-21T13:29:30.823Z,737
2022-11-21T13:31:14.583Z,737
2022-11-21T13:32:58.241Z,737
2022-11-21T13:34:41.922Z,736
2022-11-21T13:36:25.613Z,738
2022-11-21T13:38:09.323Z,738
2022-11-21T13:39:53.029Z,737
2022-11-21T13:41:36.735Z,737
2022-11-21T13:43:20.430Z,737
2022-11-21T13:45:04.141Z,736
2022-11-21T13:46:47.844Z,737
2022-11-21T13:48:31.537Z,737
2022-11-21T13:50:15.232Z,737
2022-11-21T13:51:58.966Z,737
2022-11-21T13:53:42.664Z,737
2022-11-21T13:55:26.339Z,737
2022-11-21T13:57:10.054Z,737
2022-11-21T13:58:53.760Z,737
2022-11-21T14:00:37.499Z,738
2022-11-21T14:02:21.203Z,737
2022-11-21T14:04:04.888Z,735
2022-11-21T14:05:48.566Z,737
2022-11-21T14:07:32.315Z,737
2022-11-21T14:09:15.969Z,737
2022-11-21T14:10:59.682Z,718
2022-11-21T14:12:43.376Z,684
2022-11-21T14:14:27.104Z,650
2022-11-21T14:16:10.781Z,619
2022-11-21T14:17:54.495Z,591
2022-11-21T14:19:38.265Z,565
2022-11-21T14:21:21.954Z,543
2022-11-21T14:23:05.592Z,534
2022-11-21T14:24:49.345Z,518
2022-11-21T14:26:33.017Z,501
2022-11-21T14:28:16.688Z,483
2022-11-21T14:30:00.439Z,465
2022-11-21T14:31:44.102Z,447
2022-11-21T14:33:27.968Z,426
2022-11-21T14:35:11.654Z,408
2022-11-21T14:36:55.212Z,391
2022-11-21T14:38:39.085Z,375
2022-11-21T14:40:22.782Z,359
2022-11-21T14:42:06.337Z,347
2022-11-21T14:43:50.013Z,336
2022-11-21T14:45:33.859Z,327
2022-11-21T14:47:17.574Z,316
2022-11-21T14:49:01.144Z,318
2022-11-21T14:50:44.997Z,317
2022-11-21T14:52:28.647Z,293
2022-11-21T14:54:12.227Z,286
2022-11-21T14:55:55.972Z,263
2022-11-21T14:57:39.635Z,249
2022-11-21T14:59:23.337Z,235
2022-11-21T15:01:07.206Z,222
2022-11-21T15:02:50.854Z,211
2022-11-21T15:04:34.587Z,198
2022-11-21T15:06:18.240Z,180
2022-11-21T15:08:01.916Z,161
2022-11-21T15:09:45.747Z,142
2022-11-21T15:11:29.390Z,128
2022-11-21T15:13:12.952Z,117
2022-11-21T15:14:56.663Z,106
2022-11-21T15:16:40.546Z,96
2022-11-21T15:18:24.207Z,87
2022-11-21T15:20:07.772Z,81
2022-11-21T15:21:51.505Z,75
2022-11-21T15:23:35.177Z,70
2022-11-21T15:25:19.074Z,64
2022-11-21T15:27:02.761Z,58
2022-11-21T15:28:46.310Z,53
2022-11-21T15:30:30.168Z,48
2022-11-21T15:32:13.851Z,43
2022-11-21T15:33:57.555Z,39
2022-11-21T15:35:41.108Z,34
2022-11-21T15:37:24.926Z,32
2022-11-21T15:39:08.521Z,30
2022-11-21T15:40:52.385Z,27
2022-11-21T15:42:36.102Z,24
2022-11-21T15:44:19.612Z,22
2022-11-21T15:46:03.520Z,19
2022-11-21T15:47:47.176Z,17
2022-11-21T15:49:30.898Z,15
2022-11-21T15:51:14.540Z,13
2022-11-21T15:52:58.338Z,11
2022-11-21T15:54:42.061Z,8
2022-11-21T15:56:25.744Z,7
2022-11-21T15:58:09.379Z,4
2022-11-21T15:59:52.938Z,5
2022-11-21T16:01:36.636Z,4
2022-11-21T16:03:20.502Z,4
2022-11-21T16:05:04.219Z,4
2022-11-21T16:06:47.923Z,4
2022-11-21T16:08:31.599Z,3
2022-11-21T16:10:15.228Z,0
2022-11-21T16:11:58.862Z,9
2022-11-21T16:13:42.566Z,10
2022-11-21T16:15:26.438Z,2
2022-11-21T16:18:53.668Z,2
2022-11-21T16:20:37.388Z,3
2022-11-21T16:22:21.129Z,1
2022-11-21T16:24:04.786Z,2
2022-11-21T16:25:48.580Z,2
2022-11-21T16:27:32.222Z,2
2022-11-21T16:29:16.066Z,2
2022-11-21T16:30:59.596Z,1
2022-11-21T16:32:43.342Z,1
2022-11-21T16:34:27.031Z,1
2022-11-21T16:36:10.710Z,0
2022-11-21T16:37:54.400Z,1
2022-11-21T16:39:38.306Z,1
2022-11-21T16:41:21.819Z,1
2022-11-21T16:43:05.592Z,1
2022-11-21T16:44:49.242Z,1
2022-11-21T16:46:32.910Z,0
2022-11-21T16:48:16.614Z,1
2022-11-21T16:50:00.326Z,1
2022-11-21T16:51:44.024Z,1
2022-11-21T16:53:27.735Z,1
2022-11-21T16:55:11.547Z,1
2022-11-21T16:56:55.252Z,1
2022-11-21T16:58:38.995Z,1
2022-11-21T17:00:22.695Z,1
2022-11-21T17:02:06.333Z,1
2022-11-21T17:03:50.105Z,0
2022-11-21T17:05:33.642Z,1
2022-11-21T17:07:17.454Z,1
2022-11-21T17:09:01.072Z,1
2022-11-21T17:10:44.810Z,2
2022-11-21T17:12:28.511Z,2
2022-11-21T17:14:12.335Z,1
2022-11-21T17:15:55.867Z,1
2022-11-21T17:17:39.716Z,1
2022-11-21T17:19:23.277Z,1
2022-11-21T17:21:06.974Z,1
2022-11-21T17:22:50.747Z,0
2022-11-21T17:24:34.426Z,1
2022-11-21T17:26:18.151Z,1
2022-11-21T17:28:01.942Z,1
2022-11-21T17:29:45.526Z,1
2022-11-21T17:31:29.201Z,1
2022-11-21T17:33:12.893Z,1
2022-11-21T17:34:56.593Z,1
2022-11-21T17:36:40.368Z,2
2022-11-21T17:38:24.129Z,1
2022-11-21T17:40:07.699Z,1
2022-11-21T17:41:51.445Z,1
2022-11-21T17:43:35.142Z,2
2022-11-21T17:45:18.938Z,9
2022-11-21T17:47:02.506Z,9
2022-11-21T17:48:46.239Z,9
2022-11-21T17:50:30.152Z,9
2022-11-21T17:52:13.652Z,9
2022-11-21T17:53:57.342Z,9
2022-11-21T17:55:41.026Z,1
2022-11-21T17:57:24.738Z,1
2022-11-21T17:59:08.547Z,2
2022-11-21T18:00:52.129Z,1
2022-11-21T18:02:35.841Z,1
2022-11-21T18:04:19.567Z,1
2022-11-21T18:06:03.415Z,0
2022-11-21T18:07:46.946Z,1
2022-11-21T18:09:30.811Z,0
2022-11-21T18:11:14.396Z,2
2022-11-21T18:12:58.093Z,1
2022-11-21T18:14:41.749Z,2
2022-11-21T18:16:25.470Z,9
2022-11-21T18:18:09.162Z,20
2022-11-21T18:19:52.848Z,20
2022-11-21T18:21:36.562Z,20
2022-11-21T18:23:20.298Z,20
2022-11-21T18:25:03.966Z,20
2022-11-21T18:26:47.739Z,20
2022-11-21T18:28:31.416Z,20
2022-11-21T18:30:15.244Z,19
2022-11-21T18:31:59.013Z,19
2022-11-21T18:33:42.547Z,19
2022-11-21T18:35:26.195Z,19
2022-11-21T18:37:09.968Z,20
2022-11-21T18:38:53.581Z,19
2022-11-21T18:40:37.336Z,20
2022-11-21T18:42:21.120Z,20
2022-11-21T18:44:04.705Z,20
2022-11-21T18:45:48.433Z,19
2022-11-21T18:47:32.169Z,20
2022-11-21T18:49:15.899Z,20
2022-11-21T18:50:59.504Z,19
2022-11-21T18:52:43.203Z,19
2022-11-21T18:54:26.951Z,19
2022-11-21T18:56:10.609Z,20
2022-11-21T18:57:54.309Z,20
2022-11-21T18:59:38.119Z,1
2022-11-21T19:01:21.769Z,1
2022-11-21T19:03:05.478Z,2
2022-11-21T19:04:49.126Z,1
2022-11-21T19:06:32.931Z,1
2022-11-21T19:08:16.535Z,1
2022-11-21T19:10:00.244Z,9
2022-11-21T19:11:44.021Z,9
2022-11-21T19:13:27.638Z,9
2022-11-21T19:15:11.495Z,21
2022-11-21T19:16:55.151Z,19
2022-11-21T19:18:38.882Z,21
2022-11-21T19:20:22.518Z,20
2022-11-21T19:22:06.159Z,20
2022-11-21T19:23:49.877Z,19
2022-11-21T19:25:33.549Z,18
2022-11-21T19:27:17.251Z,20
2022-11-21T19:29:01.077Z,20
2022-11-21T19:30:44.778Z,20
2022-11-21T19:32:28.510Z,20
2022-11-21T19:34:12.079Z,20
2022-11-21T19:35:55.763Z,20
2022-11-21T19:37:39.470Z,19
2022-11-21T19:39:23.272Z,20
2022-11-21T19:41:06.932Z,20
2022-11-21T19:42:50.630Z,19
2022-11-21T19:44:34.346Z,20
2022-11-21T19:46:18.051Z,20
2022-11-21T19:48:01.697Z,19
2022-11-21T19:49:45.433Z,19
2022-11-21T19:51:29.096Z,21
2022-11-21T19:53:12.818Z,20
2022-11-21T19:54:56.518Z,19
2022-11-21T19:56:40.213Z,20
2022-11-21T20:00:07.746Z,20
2022-11-21T20:01:51.384Z,20
2022-11-21T20:03:35.027Z,20
2022-11-21T20:05:18.713Z,20
2022-11-21T20:07:02.566Z,20
2022-11-21T20:08:46.200Z,20
2022-11-21T20:10:29.982Z,19
2022-11-21T20:13:57.436Z,1
2022-11-21T20:15:40.958Z,1
2022-11-21T20:17:24.736Z,1
2022-11-21T20:19:08.434Z,1
2022-11-21T20:20:52.103Z,9
2022-11-21T20:22:35.773Z,9
2022-11-21T20:24:19.505Z,22
2022-11-21T20:26:03.227Z,20
2022-11-21T20:29:30.558Z,20
2022-11-21T20:31:14.416Z,20
2022-11-21T20:32:57.962Z,19
2022-11-21T20:34:41.700Z,19
2022-11-21T20:36:25.509Z,21
2022-11-21T20:38:09.115Z,11
2022-11-21T20:39:52.811Z,2
2022-11-21T20:41:36.710Z,1
2022-11-21T20:43:20.174Z,2
2022-11-21T20:46:47.630Z,2
2022-11-21T20:48:31.284Z,1
2022-11-21T20:50:15.121Z,4
2022-11-21T20:51:58.688Z,3
2022-11-21T20:53:42.396Z,3
2022-11-21T20:55:26.106Z,3
2022-11-21T20:57:09.813Z,4
2022-11-21T20:58:53.496Z,3
2022-11-21T21:00:37.224Z,3
2022-11-21T21:02:21.061Z,3
2022-11-21T21:04:04.614Z,4
2022-11-21T21:07:32.027Z,3
2022-11-21T21:09:15.848Z,3
2022-11-21T21:10:59.432Z,3
2022-11-21T21:12:43.126Z,3
2022-11-21T21:14:26.884Z,3
2022-11-21T21:16:10.532Z,4
2022-11-21T21:17:54.341Z,4
2022-11-21T21:19:38.056Z,4
2022-11-21T21:21:21.667Z,4
2022-11-21T21:23:05.358Z,3
2022-11-21T21:24:49.045Z,4
2022-11-21T21:26:32.745Z,4
2022-11-21T21:28:16.441Z,4
2022-11-21T21:30:00.181Z,3
2022-11-21T21:31:43.869Z,1
2022-11-21T21:33:27.555Z,1
2022-11-21T21:35:11.390Z,1
2022-11-21T21:36:54.957Z,1
2022-11-21T21:38:38.664Z,8
2022-11-21T21:40:22.405Z,9
2022-11-21T21:42:06.059Z,9
2022-11-21T21:43:49.808Z,2
2022-11-21T21:45:33.480Z,1
2022-11-21T21:47:17.171Z,1
2022-11-21T21:49:00.875Z,1
2022-11-21T21:50:44.579Z,0
2022-11-21T21:52:28.311Z,1
2022-11-21T21:54:12.049Z,1
2022-11-21T21:55:55.685Z,2
2022-11-21T21:57:39.393Z,1
2022-11-21T21:59:23.190Z,1
2022-11-21T22:01:06.781Z,1
2022-11-21T22:02:50.594Z,1
2022-11-21T22:04:34.369Z,2
2022-11-21T22:06:17.913Z,1
2022-11-21T22:08:01.606Z,1
2022-11-21T22:11:29.124Z,1
2022-11-21T22:13:12.719Z,2
2022-11-21T22:14:56.481Z,1
2022-11-21T22:16:40.160Z,2
2022-11-21T22:18:23.908Z,2
2022-11-21T22:20:07.549Z,1
2022-11-21T22:21:51.262Z,1
2022-11-21T22:23:34.929Z,2
2022-11-21T22:25:18.731Z,1
2022-11-21T22:27:02.389Z,1
2022-11-21T22:28:46.050Z,1
2022-11-21T22:30:29.742Z,9
2022-11-21T22:32:13.443Z,9
2022-11-21T22:33:57.263Z,10
2022-11-21T22:35:40.851Z,2
2022-11-21T22:37:24.654Z,1
2022-11-21T22:39:08.363Z,2
2022-11-21T22:40:51.958Z,2
2022-11-21T22:42:35.762Z,2
2022-11-21T22:44:19.505Z,2
2022-11-21T22:46:03.062Z,2
2022-11-21T22:47:46.763Z,2
2022-11-21T22:49:30.557Z,1
2022-11-21T22:51:14.168Z,2
2022-11-21T22:52:57.995Z,2
2022-11-21T22:54:41.589Z,2
2022-11-21T22:56:25.403Z,2
2022-11-21T22:58:09.104Z,2
2022-11-21T22:59:52.690Z,2
2022-11-21T23:01:36.419Z,3
2022-11-21T23:03:20.102Z,9
2022-11-21T23:05:03.822Z,2
2022-11-21T23:06:47.645Z,2
2022-11-21T23:08:31.197Z,2
2022-11-21T23:10:15.052Z,10
2022-11-21T23:11:58.611Z,10
2022-11-21T23:13:42.304Z,10
2022-11-21T23:15:26.067Z,10
2022-11-21T23:17:09.802Z,2
2022-11-21T23:18:53.589Z,2
2022-11-21T23:20:37.111Z,2
2022-11-21T23:22:20.828Z,2
2022-11-21T23:24:04.528Z,2
2022-11-21T23:25:48.225Z,2
2022-11-21T23:27:31.954Z,2
2022-11-21T23:29:15.649Z,2
2022-11-21T23:30:59.411Z,2
2022-11-21T23:32:43.040Z,2
2022-11-21T23:34:26.833Z,3
2022-11-21T23:36:10.587Z,2
2022-11-21T23:37:54.151Z,3
2022-11-21T23:39:37.878Z,2
2022-11-21T23:41:21.551Z,2
2022-11-21T23:43:05.336Z,2
2022-11-21T23:44:48.957Z,2
2022-11-21T23:46:32.756Z,2
2022-11-21T23:48:16.379Z,2
2022-11-21T23:50:00.164Z,9
2022-11-21T23:51:43.855Z,10
2022-11-21T23:53:27.474Z,10
2022-11-21T23:55:11.175Z,2
2022-11-21T23:56:54.982Z,2
2022-11-21T23:58:38.580Z,2
